sensor_id;sensor_type;location;lat;lon;timestamp;temperature;humidity
19256;DHT22;9762;52.490;13.410;2022-10-16T00:00:35;18.20;99.90
19256;DHT22;9762;52.490;13.410;2022-10-16T00:03:02;18.20;99.90
19256;DHT22;9762;52.490;13.410;2022-10-16T00:05:28;18.20;99.90
19256;DHT22;9762;52.490;13.410;2022-10-16T00:07:53;18.20;99.90
19256;DHT22;9762;52.490;13.410;2022-10-16T00:10:19;18.20;99.90
19256;DHT22;9762;52.490;13.410;2022-10-16T00:12:44;18.20;99.90
19256;DHT22;9762;52.490;13.410;2022-10-16T00:15:10;18.30;99.90
19256;DHT22;9762;52.490;13.410;2022-10-16T00:17:35;18.30;99.90
19256;DHT22;9762;52.490;13.410;2022-10-16T00:20:01;18.20;99.90
19256;DHT22;9762;52.490;13.410;2022-10-16T00:22:27;18.20;99.90
19256;DHT22;9762;52.490;13.410;2022-10-16T00:24:53;18.30;99.90
19256;DHT22;9762;52.490;13.410;2022-10-16T00:27:19;18.30;99.90
19256;DHT22;9762;52.490;13.410;2022-10-16T00:29:44;18.30;99.90
19256;DHT22;9762;52.490;13.410;2022-10-16T00:32:10;18.30;99.90
19256;DHT22;9762;52.490;13.410;2022-10-16T00:34:35;18.30;99.90
19256;DHT22;9762;52.490;13.410;2022-10-16T00:37:01;18.30;99.90
19256;DHT22;9762;52.490;13.410;2022-10-16T00:39:26;18.40;99.90
19256;DHT22;9762;52.490;13.410;2022-10-16T00:41:52;18.40;99.90
19256;DHT22;9762;52.490;13.410;2022-10-16T00:47:15;18.40;99.90
19256;DHT22;9762;52.490;13.410;2022-10-16T00:49:43;18.40;99.90
19256;DHT22;9762;52.490;13.410;2022-10-16T00:52:09;18.40;99.90
19256;DHT22;9762;52.490;13.410;2022-10-16T00:54:35;18.40;99.90
19256;DHT22;9762;52.490;13.410;2022-10-16T00:57:04;18.40;99.90
19256;DHT22;9762;52.490;13.410;2022-10-16T00:59:33;18.50;99.90
19256;DHT22;9762;52.490;13.410;2022-10-16T01:02:01;18.40;99.90
19256;DHT22;9762;52.490;13.410;2022-10-16T01:04:32;18.40;99.90
19256;DHT22;9762;52.490;13.410;2022-10-16T01:28:52;18.50;99.90
19256;DHT22;9762;52.490;13.410;2022-10-16T01:31:24;18.50;99.90
19256;DHT22;9762;52.490;13.410;2022-10-16T01:37:09;18.40;99.90
19256;DHT22;9762;52.490;13.410;2022-10-16T01:39:38;18.40;99.90
19256;DHT22;9762;52.490;13.410;2022-10-16T01:42:11;18.40;99.90
19256;DHT22;9762;52.490;13.410;2022-10-16T01:44:38;18.40;99.90
19256;DHT22;9762;52.490;13.410;2022-10-16T01:47:06;18.40;99.90
19256;DHT22;9762;52.490;13.410;2022-10-16T01:49:36;18.40;99.90
19256;DHT22;9762;52.490;13.410;2022-10-16T01:52:06;18.40;99.90
19256;DHT22;9762;52.490;13.410;2022-10-16T01:54:35;18.30;99.90
19256;DHT22;9762;52.490;13.410;2022-10-16T01:57:04;18.40;99.90
19256;DHT22;9762;52.490;13.410;2022-10-16T01:59:32;18.30;99.90
19256;DHT22;9762;52.490;13.410;2022-10-16T02:02:06;18.30;99.90
19256;DHT22;9762;52.490;13.410;2022-10-16T02:04:44;18.30;99.90
19256;DHT22;9762;52.490;13.410;2022-10-16T02:07:10;18.30;99.90
19256;DHT22;9762;52.490;13.410;2022-10-16T02:09:37;18.30;99.90
19256;DHT22;9762;52.490;13.410;2022-10-16T02:12:13;18.20;99.90
19256;DHT22;9762;52.490;13.410;2022-10-16T02:14:39;18.30;99.90
19256;DHT22;9762;52.490;13.410;2022-10-16T02:17:11;18.20;99.90
19256;DHT22;9762;52.490;13.410;2022-10-16T02:19:37;18.20;99.90
19256;DHT22;9762;52.490;13.410;2022-10-16T02:22:04;18.30;99.90
19256;DHT22;9762;52.490;13.410;2022-10-16T02:24:41;18.30;99.90
19256;DHT22;9762;52.490;13.410;2022-10-16T02:27:31;18.30;99.90
19256;DHT22;9762;52.490;13.410;2022-10-16T02:30:06;18.30;99.90
19256;DHT22;9762;52.490;13.410;2022-10-16T02:32:34;18.30;99.90
19256;DHT22;9762;52.490;13.410;2022-10-16T02:35:01;18.40;99.90
19256;DHT22;9762;52.490;13.410;2022-10-16T02:37:28;18.30;99.90
19256;DHT22;9762;52.490;13.410;2022-10-16T02:39:56;18.40;99.90
19256;DHT22;9762;52.490;13.410;2022-10-16T02:42:34;18.30;99.90
19256;DHT22;9762;52.490;13.410;2022-10-16T02:45:00;18.30;99.90
19256;DHT22;9762;52.490;13.410;2022-10-16T02:47:26;18.30;99.90
19256;DHT22;9762;52.490;13.410;2022-10-16T02:49:51;18.40;99.90
19256;DHT22;9762;52.490;13.410;2022-10-16T02:52:17;18.30;99.90
19256;DHT22;9762;52.490;13.410;2022-10-16T02:54:42;18.40;99.90
19256;DHT22;9762;52.490;13.410;2022-10-16T02:57:08;18.40;99.90
19256;DHT22;9762;52.490;13.410;2022-10-16T02:59:33;18.30;99.90
19256;DHT22;9762;52.490;13.410;2022-10-16T03:01:59;18.30;99.90
19256;DHT22;9762;52.490;13.410;2022-10-16T03:04:24;18.30;99.90
19256;DHT22;9762;52.490;13.410;2022-10-16T03:06:50;18.30;99.90
19256;DHT22;9762;52.490;13.410;2022-10-16T03:09:15;18.30;99.90
19256;DHT22;9762;52.490;13.410;2022-10-16T03:11:41;18.30;99.90
19256;DHT22;9762;52.490;13.410;2022-10-16T03:14:06;18.30;99.90
19256;DHT22;9762;52.490;13.410;2022-10-16T03:16:32;18.30;99.90
19256;DHT22;9762;52.490;13.410;2022-10-16T03:18:58;18.20;99.90
19256;DHT22;9762;52.490;13.410;2022-10-16T03:21:23;18.30;99.90
19256;DHT22;9762;52.490;13.410;2022-10-16T03:23:49;18.20;99.90
19256;DHT22;9762;52.490;13.410;2022-10-16T03:26:14;18.20;99.90
19256;DHT22;9762;52.490;13.410;2022-10-16T03:28:40;18.30;99.90
19256;DHT22;9762;52.490;13.410;2022-10-16T03:31:05;18.20;99.90
19256;DHT22;9762;52.490;13.410;2022-10-16T03:33:31;18.30;99.90
19256;DHT22;9762;52.490;13.410;2022-10-16T03:35:57;18.30;99.90
19256;DHT22;9762;52.490;13.410;2022-10-16T03:38:22;18.30;99.90
19256;DHT22;9762;52.490;13.410;2022-10-16T03:40:48;18.30;99.90
19256;DHT22;9762;52.490;13.410;2022-10-16T03:43:13;18.20;99.90
19256;DHT22;9762;52.490;13.410;2022-10-16T03:45:39;18.30;99.90
19256;DHT22;9762;52.490;13.410;2022-10-16T03:48:05;18.30;99.90
19256;DHT22;9762;52.490;13.410;2022-10-16T03:50:31;18.20;99.90
19256;DHT22;9762;52.490;13.410;2022-10-16T03:52:56;18.30;99.90
19256;DHT22;9762;52.490;13.410;2022-10-16T03:55:22;18.20;99.90
19256;DHT22;9762;52.490;13.410;2022-10-16T03:57:47;18.20;99.90
19256;DHT22;9762;52.490;13.410;2022-10-16T04:00:13;18.20;99.90
19256;DHT22;9762;52.490;13.410;2022-10-16T04:02:39;18.20;99.90
19256;DHT22;9762;52.490;13.410;2022-10-16T04:05:05;18.20;99.90
19256;DHT22;9762;52.490;13.410;2022-10-16T04:07:30;18.20;99.90
19256;DHT22;9762;52.490;13.410;2022-10-16T04:09:56;18.20;99.90
19256;DHT22;9762;52.490;13.410;2022-10-16T04:12:24;18.20;99.90
19256;DHT22;9762;52.490;13.410;2022-10-16T04:14:49;18.20;99.90
19256;DHT22;9762;52.490;13.410;2022-10-16T04:17:15;18.10;99.90
19256;DHT22;9762;52.490;13.410;2022-10-16T04:19:40;18.20;99.90
19256;DHT22;9762;52.490;13.410;2022-10-16T04:22:06;18.20;99.90
19256;DHT22;9762;52.490;13.410;2022-10-16T04:24:31;18.10;99.90
19256;DHT22;9762;52.490;13.410;2022-10-16T04:26:57;18.20;99.90
19256;DHT22;9762;52.490;13.410;2022-10-16T04:29:22;18.10;99.90
19256;DHT22;9762;52.490;13.410;2022-10-16T04:31:48;18.20;99.90
19256;DHT22;9762;52.490;13.410;2022-10-16T04:34:13;18.20;99.90
19256;DHT22;9762;52.490;13.410;2022-10-16T04:36:39;18.10;99.90
19256;DHT22;9762;52.490;13.410;2022-10-16T04:39:04;18.10;99.90
19256;DHT22;9762;52.490;13.410;2022-10-16T04:41:30;18.10;99.90
19256;DHT22;9762;52.490;13.410;2022-10-16T04:43:55;18.10;99.90
19256;DHT22;9762;52.490;13.410;2022-10-16T04:46:21;18.10;99.90
19256;DHT22;9762;52.490;13.410;2022-10-16T04:48:46;18.10;99.90
19256;DHT22;9762;52.490;13.410;2022-10-16T04:51:12;18.20;99.90
19256;DHT22;9762;52.490;13.410;2022-10-16T04:53:38;18.10;99.90
19256;DHT22;9762;52.490;13.410;2022-10-16T04:56:03;18.20;99.90
19256;DHT22;9762;52.490;13.410;2022-10-16T04:58:29;18.20;99.90
19256;DHT22;9762;52.490;13.410;2022-10-16T05:00:55;18.10;99.90
19256;DHT22;9762;52.490;13.410;2022-10-16T05:03:20;18.20;99.90
19256;DHT22;9762;52.490;13.410;2022-10-16T05:05:46;18.10;99.90
19256;DHT22;9762;52.490;13.410;2022-10-16T05:08:13;18.20;99.90
19256;DHT22;9762;52.490;13.410;2022-10-16T05:10:40;18.10;99.90
19256;DHT22;9762;52.490;13.410;2022-10-16T05:13:06;18.10;99.90
19256;DHT22;9762;52.490;13.410;2022-10-16T05:15:32;18.10;99.90
19256;DHT22;9762;52.490;13.410;2022-10-16T05:17:57;18.00;99.90
19256;DHT22;9762;52.490;13.410;2022-10-16T05:20:23;18.00;99.90
19256;DHT22;9762;52.490;13.410;2022-10-16T05:22:49;18.00;99.90
19256;DHT22;9762;52.490;13.410;2022-10-16T05:25:14;17.90;99.90
19256;DHT22;9762;52.490;13.410;2022-10-16T05:27:40;17.90;99.90
19256;DHT22;9762;52.490;13.410;2022-10-16T05:30:06;17.90;99.90
19256;DHT22;9762;52.490;13.410;2022-10-16T05:32:32;17.90;99.90
19256;DHT22;9762;52.490;13.410;2022-10-16T05:34:58;17.90;99.90
19256;DHT22;9762;52.490;13.410;2022-10-16T05:37:25;17.90;99.90
19256;DHT22;9762;52.490;13.410;2022-10-16T05:39:52;17.90;99.90
19256;DHT22;9762;52.490;13.410;2022-10-16T05:42:18;17.90;99.90
19256;DHT22;9762;52.490;13.410;2022-10-16T05:44:44;17.90;99.90
19256;DHT22;9762;52.490;13.410;2022-10-16T05:47:09;17.80;99.90
19256;DHT22;9762;52.490;13.410;2022-10-16T05:49:36;17.80;99.90
19256;DHT22;9762;52.490;13.410;2022-10-16T05:52:01;17.80;99.90
19256;DHT22;9762;52.490;13.410;2022-10-16T05:54:27;17.80;99.90
19256;DHT22;9762;52.490;13.410;2022-10-16T05:56:53;17.80;99.90
19256;DHT22;9762;52.490;13.410;2022-10-16T05:59:18;17.80;99.90
19256;DHT22;9762;52.490;13.410;2022-10-16T06:01:44;17.80;99.90
19256;DHT22;9762;52.490;13.410;2022-10-16T06:04:09;17.90;99.90
19256;DHT22;9762;52.490;13.410;2022-10-16T06:06:35;17.80;99.90
19256;DHT22;9762;52.490;13.410;2022-10-16T06:09:02;17.80;99.90
19256;DHT22;9762;52.490;13.410;2022-10-16T06:11:30;17.90;99.90
19256;DHT22;9762;52.490;13.410;2022-10-16T06:13:57;17.90;99.90
19256;DHT22;9762;52.490;13.410;2022-10-16T06:16:24;17.90;99.90
19256;DHT22;9762;52.490;13.410;2022-10-16T06:18:51;17.90;99.90
19256;DHT22;9762;52.490;13.410;2022-10-16T06:21:19;17.90;99.90
19256;DHT22;9762;52.490;13.410;2022-10-16T06:23:45;17.90;99.90
19256;DHT22;9762;52.490;13.410;2022-10-16T06:26:17;18.00;99.90
19256;DHT22;9762;52.490;13.410;2022-10-16T06:28:43;18.00;99.90
19256;DHT22;9762;52.490;13.410;2022-10-16T06:31:10;18.00;99.90
19256;DHT22;9762;52.490;13.410;2022-10-16T06:33:37;18.00;99.90
19256;DHT22;9762;52.490;13.410;2022-10-16T06:36:05;18.00;99.90
19256;DHT22;9762;52.490;13.410;2022-10-16T06:38:31;18.00;99.90
19256;DHT22;9762;52.490;13.410;2022-10-16T06:40:57;18.10;99.90
19256;DHT22;9762;52.490;13.410;2022-10-16T06:43:23;18.10;99.90
19256;DHT22;9762;52.490;13.410;2022-10-16T06:45:56;18.20;99.90
19256;DHT22;9762;52.490;13.410;2022-10-16T06:48:22;18.20;99.90
19256;DHT22;9762;52.490;13.410;2022-10-16T06:53:27;18.20;99.90
19256;DHT22;9762;52.490;13.410;2022-10-16T06:55:53;18.30;99.90
19256;DHT22;9762;52.490;13.410;2022-10-16T06:58:19;18.30;99.90
19256;DHT22;9762;52.490;13.410;2022-10-16T07:00:45;18.30;99.90
19256;DHT22;9762;52.490;13.410;2022-10-16T07:03:11;18.40;99.90
19256;DHT22;9762;52.490;13.410;2022-10-16T07:05:41;18.40;99.90
19256;DHT22;9762;52.490;13.410;2022-10-16T07:08:07;18.40;99.90
19256;DHT22;9762;52.490;13.410;2022-10-16T07:10:33;18.50;99.90
19256;DHT22;9762;52.490;13.410;2022-10-16T07:12:59;18.60;99.90
19256;DHT22;9762;52.490;13.410;2022-10-16T07:15:25;18.60;99.90
19256;DHT22;9762;52.490;13.410;2022-10-16T07:17:51;18.70;99.90
19256;DHT22;9762;52.490;13.410;2022-10-16T07:20:16;18.70;99.90
19256;DHT22;9762;52.490;13.410;2022-10-16T07:22:42;18.80;99.90
19256;DHT22;9762;52.490;13.410;2022-10-16T07:25:07;18.80;99.90
19256;DHT22;9762;52.490;13.410;2022-10-16T07:27:33;18.80;99.90
19256;DHT22;9762;52.490;13.410;2022-10-16T07:29:59;18.90;99.90
19256;DHT22;9762;52.490;13.410;2022-10-16T07:32:25;18.90;99.90
19256;DHT22;9762;52.490;13.410;2022-10-16T07:34:51;19.00;99.90
19256;DHT22;9762;52.490;13.410;2022-10-16T07:37:17;19.00;99.90
19256;DHT22;9762;52.490;13.410;2022-10-16T07:39:43;19.10;99.90
19256;DHT22;9762;52.490;13.410;2022-10-16T07:42:08;19.10;99.90
19256;DHT22;9762;52.490;13.410;2022-10-16T07:44:34;19.20;99.90
19256;DHT22;9762;52.490;13.410;2022-10-16T07:46:59;19.20;99.90
19256;DHT22;9762;52.490;13.410;2022-10-16T07:49:25;19.20;99.90
19256;DHT22;9762;52.490;13.410;2022-10-16T07:51:51;19.30;99.90
19256;DHT22;9762;52.490;13.410;2022-10-16T07:54:16;19.30;99.90
19256;DHT22;9762;52.490;13.410;2022-10-16T07:56:42;19.40;99.90
19256;DHT22;9762;52.490;13.410;2022-10-16T07:59:08;19.40;99.90
19256;DHT22;9762;52.490;13.410;2022-10-16T08:01:33;19.40;99.90
19256;DHT22;9762;52.490;13.410;2022-10-16T08:03:59;19.40;99.90
19256;DHT22;9762;52.490;13.410;2022-10-16T08:06:24;19.50;99.90
19256;DHT22;9762;52.490;13.410;2022-10-16T08:08:50;19.50;99.90
19256;DHT22;9762;52.490;13.410;2022-10-16T08:11:15;19.50;99.90
19256;DHT22;9762;52.490;13.410;2022-10-16T08:13:41;19.50;99.90
19256;DHT22;9762;52.490;13.410;2022-10-16T08:16:07;19.60;99.90
19256;DHT22;9762;52.490;13.410;2022-10-16T08:18:37;19.50;99.90
19256;DHT22;9762;52.490;13.410;2022-10-16T08:21:05;19.50;99.90
19256;DHT22;9762;52.490;13.410;2022-10-16T08:23:30;19.60;99.90
19256;DHT22;9762;52.490;13.410;2022-10-16T08:26:03;19.60;99.90
19256;DHT22;9762;52.490;13.410;2022-10-16T08:28:29;19.60;99.90
19256;DHT22;9762;52.490;13.410;2022-10-16T08:30:54;19.60;99.90
19256;DHT22;9762;52.490;13.410;2022-10-16T08:33:21;19.70;99.90
19256;DHT22;9762;52.490;13.410;2022-10-16T08:35:53;19.70;99.90
19256;DHT22;9762;52.490;13.410;2022-10-16T08:38:19;19.70;99.90
19256;DHT22;9762;52.490;13.410;2022-10-16T08:40:45;19.80;99.90
19256;DHT22;9762;52.490;13.410;2022-10-16T08:45:58;19.90;99.90
19256;DHT22;9762;52.490;13.410;2022-10-16T08:48:34;20.00;99.90
19256;DHT22;9762;52.490;13.410;2022-10-16T08:51:02;20.00;99.90
19256;DHT22;9762;52.490;13.410;2022-10-16T08:53:40;20.00;99.90
19256;DHT22;9762;52.490;13.410;2022-10-16T08:56:08;20.00;99.90
19256;DHT22;9762;52.490;13.410;2022-10-16T08:58:33;20.00;99.90
19256;DHT22;9762;52.490;13.410;2022-10-16T09:01:02;20.00;99.90
19256;DHT22;9762;52.490;13.410;2022-10-16T09:09:45;20.00;99.90
19256;DHT22;9762;52.490;13.410;2022-10-16T09:12:33;19.90;99.90
19256;DHT22;9762;52.490;13.410;2022-10-16T09:15:32;20.00;99.90
19256;DHT22;9762;52.490;13.410;2022-10-16T09:18:29;20.10;99.90
19256;DHT22;9762;52.490;13.410;2022-10-16T09:21:07;20.10;99.90
19256;DHT22;9762;52.490;13.410;2022-10-16T09:23:37;20.10;99.90
19256;DHT22;9762;52.490;13.410;2022-10-16T09:26:05;20.20;99.90
19256;DHT22;9762;52.490;13.410;2022-10-16T09:28:31;20.30;99.90
19256;DHT22;9762;52.490;13.410;2022-10-16T09:30:56;20.40;99.90
19256;DHT22;9762;52.490;13.410;2022-10-16T09:33:27;20.40;99.90
19256;DHT22;9762;52.490;13.410;2022-10-16T09:35:56;20.50;99.90
19256;DHT22;9762;52.490;13.410;2022-10-16T09:40:51;20.60;99.90
19256;DHT22;9762;52.490;13.410;2022-10-16T09:43:26;20.60;99.90
19256;DHT22;9762;52.490;13.410;2022-10-16T09:46:03;20.60;99.70
19256;DHT22;9762;52.490;13.410;2022-10-16T09:48:47;20.60;99.70
19256;DHT22;9762;52.490;13.410;2022-10-16T09:51:23;20.70;99.60
19256;DHT22;9762;52.490;13.410;2022-10-16T09:53:55;20.80;99.50
19256;DHT22;9762;52.490;13.410;2022-10-16T09:56:31;20.80;99.30
19256;DHT22;9762;52.490;13.410;2022-10-16T09:59:16;20.80;99.00
19256;DHT22;9762;52.490;13.410;2022-10-16T10:01:45;20.80;99.00
19256;DHT22;9762;52.490;13.410;2022-10-16T10:04:12;20.80;99.10
19256;DHT22;9762;52.490;13.410;2022-10-16T10:06:44;20.80;98.90
19256;DHT22;9762;52.490;13.410;2022-10-16T10:09:33;20.80;98.90
19256;DHT22;9762;52.490;13.410;2022-10-16T10:12:03;20.90;98.90
19256;DHT22;9762;52.490;13.410;2022-10-16T10:14:38;21.00;98.70
19256;DHT22;9762;52.490;13.410;2022-10-16T10:19:40;21.10;98.30
19256;DHT22;9762;52.490;13.410;2022-10-16T10:22:25;21.20;98.20
19256;DHT22;9762;52.490;13.410;2022-10-16T10:30:29;21.50;97.50
19256;DHT22;9762;52.490;13.410;2022-10-16T10:36:12;21.60;97.20
19256;DHT22;9762;52.490;13.410;2022-10-16T10:38:57;21.70;97.10
19256;DHT22;9762;52.490;13.410;2022-10-16T10:44:19;21.90;95.70
19256;DHT22;9762;52.490;13.410;2022-10-16T10:46:50;21.90;95.50
19256;DHT22;9762;52.490;13.410;2022-10-16T10:57:10;22.20;94.50
19256;DHT22;9762;52.490;13.410;2022-10-16T11:00:06;22.30;94.20
19256;DHT22;9762;52.490;13.410;2022-10-16T11:02:41;22.50;93.60
19256;DHT22;9762;52.490;13.410;2022-10-16T11:05:40;22.70;93.30
19256;DHT22;9762;52.490;13.410;2022-10-16T11:08:17;22.90;91.80
19256;DHT22;9762;52.490;13.410;2022-10-16T11:10:50;23.10;91.90
19256;DHT22;9762;52.490;13.410;2022-10-16T11:16:16;23.70;91.30
19256;DHT22;9762;52.490;13.410;2022-10-16T11:18:52;23.90;91.00
19256;DHT22;9762;52.490;13.410;2022-10-16T11:21:21;24.10;90.10
19256;DHT22;9762;52.490;13.410;2022-10-16T11:23:56;24.20;89.50
19256;DHT22;9762;52.490;13.410;2022-10-16T11:26:30;24.20;88.40
19256;DHT22;9762;52.490;13.410;2022-10-16T11:28:59;24.30;87.30
19256;DHT22;9762;52.490;13.410;2022-10-16T11:34:28;24.20;85.30
19256;DHT22;9762;52.490;13.410;2022-10-16T11:37:18;24.20;85.70
19256;DHT22;9762;52.490;13.410;2022-10-16T11:39:45;24.20;84.50
19256;DHT22;9762;52.490;13.410;2022-10-16T11:42:18;24.20;84.20
19256;DHT22;9762;52.490;13.410;2022-10-16T11:45:02;24.30;84.30
19256;DHT22;9762;52.490;13.410;2022-10-16T11:50:22;24.40;82.90
19256;DHT22;9762;52.490;13.410;2022-10-16T11:53:04;24.50;81.70
19256;DHT22;9762;52.490;13.410;2022-10-16T11:55:40;24.40;80.90
19256;DHT22;9762;52.490;13.410;2022-10-16T12:03:46;24.30;79.00
19256;DHT22;9762;52.490;13.410;2022-10-16T12:06:43;24.30;78.00
19256;DHT22;9762;52.490;13.410;2022-10-16T12:09:27;24.30;78.30
19256;DHT22;9762;52.490;13.410;2022-10-16T12:11:53;24.30;78.90
19256;DHT22;9762;52.490;13.410;2022-10-16T12:14:21;24.20;77.70
19256;DHT22;9762;52.490;13.410;2022-10-16T12:17:00;24.20;77.50
19256;DHT22;9762;52.490;13.410;2022-10-16T12:19:28;24.60;78.20
19256;DHT22;9762;52.490;13.410;2022-10-16T12:21:59;25.20;79.60
19256;DHT22;9762;52.490;13.410;2022-10-16T12:24:39;26.00;86.70
19256;DHT22;9762;52.490;13.410;2022-10-16T12:32:37;28.30;69.50
19256;DHT22;9762;52.490;13.410;2022-10-16T12:35:06;29.00;67.20
19256;DHT22;9762;52.490;13.410;2022-10-16T12:37:34;29.60;65.70
19256;DHT22;9762;52.490;13.410;2022-10-16T12:40:23;30.10;62.30
19256;DHT22;9762;52.490;13.410;2022-10-16T12:42:49;30.50;58.90
19256;DHT22;9762;52.490;13.410;2022-10-16T12:47:51;30.80;57.90
19256;DHT22;9762;52.490;13.410;2022-10-16T12:50:37;30.60;55.90
19256;DHT22;9762;52.490;13.410;2022-10-16T12:53:17;30.20;55.60
19256;DHT22;9762;52.490;13.410;2022-10-16T12:56:34;29.70;56.20
19256;DHT22;9762;52.490;13.410;2022-10-16T12:58:51;29.20;56.60
19256;DHT22;9762;52.490;13.410;2022-10-16T13:01:34;28.60;57.30
19256;DHT22;9762;52.490;13.410;2022-10-16T13:07:25;27.70;58.90
19256;DHT22;9762;52.490;13.410;2022-10-16T13:21:05;26.20;62.30
19256;DHT22;9762;52.490;13.410;2022-10-16T13:28:42;25.40;64.40
19256;DHT22;9762;52.490;13.410;2022-10-16T13:31:20;25.20;65.40
19256;DHT22;9762;52.490;13.410;2022-10-16T13:33:50;25.00;66.00
19256;DHT22;9762;52.490;13.410;2022-10-16T13:36:26;24.90;66.60
19256;DHT22;9762;52.490;13.410;2022-10-16T13:39:10;24.70;67.10
19256;DHT22;9762;52.490;13.410;2022-10-16T13:41:37;24.60;67.50
19256;DHT22;9762;52.490;13.410;2022-10-16T13:44:03;24.50;68.10
19256;DHT22;9762;52.490;13.410;2022-10-16T13:46:29;24.40;68.60
19256;DHT22;9762;52.490;13.410;2022-10-16T13:49:02;24.30;68.90
19256;DHT22;9762;52.490;13.410;2022-10-16T13:51:28;24.20;69.20
19256;DHT22;9762;52.490;13.410;2022-10-16T13:53:58;24.10;69.60
19256;DHT22;9762;52.490;13.410;2022-10-16T13:56:29;24.00;70.00
19256;DHT22;9762;52.490;13.410;2022-10-16T13:59:01;23.90;70.10
19256;DHT22;9762;52.490;13.410;2022-10-16T14:01:42;23.90;70.60
19256;DHT22;9762;52.490;13.410;2022-10-16T14:04:11;23.80;70.70
19256;DHT22;9762;52.490;13.410;2022-10-16T14:06:43;23.70;71.10
19256;DHT22;9762;52.490;13.410;2022-10-16T14:11:59;23.60;71.70
19256;DHT22;9762;52.490;13.410;2022-10-16T14:14:27;23.60;71.80
19256;DHT22;9762;52.490;13.410;2022-10-16T14:16:56;23.60;72.00
19256;DHT22;9762;52.490;13.410;2022-10-16T14:19:26;23.60;72.00
19256;DHT22;9762;52.490;13.410;2022-10-16T14:21:53;23.50;72.40
19256;DHT22;9762;52.490;13.410;2022-10-16T14:26:54;23.40;73.00
19256;DHT22;9762;52.490;13.410;2022-10-16T14:29:22;23.30;72.90
19256;DHT22;9762;52.490;13.410;2022-10-16T14:32:02;23.30;73.30
19256;DHT22;9762;52.490;13.410;2022-10-16T14:34:33;23.30;73.40
19256;DHT22;9762;52.490;13.410;2022-10-16T14:37:23;23.20;73.50
19256;DHT22;9762;52.490;13.410;2022-10-16T14:39:50;23.20;73.50
19256;DHT22;9762;52.490;13.410;2022-10-16T14:42:18;23.20;73.70
19256;DHT22;9762;52.490;13.410;2022-10-16T14:44:45;23.10;74.00
19256;DHT22;9762;52.490;13.410;2022-10-16T14:47:14;23.10;74.20
19256;DHT22;9762;52.490;13.410;2022-10-16T14:49:41;23.10;73.70
19256;DHT22;9762;52.490;13.410;2022-10-16T14:52:11;23.10;73.80
19256;DHT22;9762;52.490;13.410;2022-10-16T14:54:37;23.00;73.40
19256;DHT22;9762;52.490;13.410;2022-10-16T14:57:02;23.00;73.50
19256;DHT22;9762;52.490;13.410;2022-10-16T14:59:35;23.00;73.50
19256;DHT22;9762;52.490;13.410;2022-10-16T15:02:21;22.90;73.50
19256;DHT22;9762;52.490;13.410;2022-10-16T15:04:48;22.90;73.80
19256;DHT22;9762;52.490;13.410;2022-10-16T15:07:14;22.80;74.00
19256;DHT22;9762;52.490;13.410;2022-10-16T15:09:40;22.80;74.20
19256;DHT22;9762;52.490;13.410;2022-10-16T15:12:05;22.70;74.10
19256;DHT22;9762;52.490;13.410;2022-10-16T15:14:31;22.70;74.40
19256;DHT22;9762;52.490;13.410;2022-10-16T15:16:56;22.60;74.40
19256;DHT22;9762;52.490;13.410;2022-10-16T15:19:22;22.60;74.40
19256;DHT22;9762;52.490;13.410;2022-10-16T15:21:48;22.60;74.50
19256;DHT22;9762;52.490;13.410;2022-10-16T15:24:14;22.50;74.70
19256;DHT22;9762;52.490;13.410;2022-10-16T15:26:40;22.50;75.20
19256;DHT22;9762;52.490;13.410;2022-10-16T15:29:06;22.40;75.20
19256;DHT22;9762;52.490;13.410;2022-10-16T15:31:32;22.40;75.20
19256;DHT22;9762;52.490;13.410;2022-10-16T15:33:57;22.30;75.20
19256;DHT22;9762;52.490;13.410;2022-10-16T15:36:33;22.30;75.30
19256;DHT22;9762;52.490;13.410;2022-10-16T15:39:23;22.20;75.30
19256;DHT22;9762;52.490;13.410;2022-10-16T15:41:48;22.20;75.50
19256;DHT22;9762;52.490;13.410;2022-10-16T15:44:18;22.10;75.50
19256;DHT22;9762;52.490;13.410;2022-10-16T15:46:44;22.10;75.80
19256;DHT22;9762;52.490;13.410;2022-10-16T15:49:11;22.10;75.80
19256;DHT22;9762;52.490;13.410;2022-10-16T15:51:40;22.00;75.60
19256;DHT22;9762;52.490;13.410;2022-10-16T15:54:07;22.00;75.80
19256;DHT22;9762;52.490;13.410;2022-10-16T15:56:33;22.00;75.70
19256;DHT22;9762;52.490;13.410;2022-10-16T15:58:59;21.90;75.70
19256;DHT22;9762;52.490;13.410;2022-10-16T16:01:26;21.90;75.70
19256;DHT22;9762;52.490;13.410;2022-10-16T16:03:55;21.90;75.90
19256;DHT22;9762;52.490;13.410;2022-10-16T16:06:22;21.80;76.10
19256;DHT22;9762;52.490;13.410;2022-10-16T16:08:50;21.80;75.90
19256;DHT22;9762;52.490;13.410;2022-10-16T16:11:16;21.80;75.90
19256;DHT22;9762;52.490;13.410;2022-10-16T16:13:42;21.70;75.90
19256;DHT22;9762;52.490;13.410;2022-10-16T16:16:10;21.70;76.50
19256;DHT22;9762;52.490;13.410;2022-10-16T16:18:36;21.60;76.50
19256;DHT22;9762;52.490;13.410;2022-10-16T16:21:03;21.60;76.50
19256;DHT22;9762;52.490;13.410;2022-10-16T16:23:29;21.60;76.70
19256;DHT22;9762;52.490;13.410;2022-10-16T16:26:15;21.60;76.70
19256;DHT22;9762;52.490;13.410;2022-10-16T16:28:42;21.50;76.80
19256;DHT22;9762;52.490;13.410;2022-10-16T16:31:08;21.50;76.90
19256;DHT22;9762;52.490;13.410;2022-10-16T16:33:34;21.40;77.10
19256;DHT22;9762;52.490;13.410;2022-10-16T16:36:02;21.40;77.60
19256;DHT22;9762;52.490;13.410;2022-10-16T16:38:28;21.30;77.70
19256;DHT22;9762;52.490;13.410;2022-10-16T16:40:54;21.30;77.70
19256;DHT22;9762;52.490;13.410;2022-10-16T16:43:23;21.20;78.20
19256;DHT22;9762;52.490;13.410;2022-10-16T16:45:49;21.20;78.20
19256;DHT22;9762;52.490;13.410;2022-10-16T16:48:14;21.20;79.10
19256;DHT22;9762;52.490;13.410;2022-10-16T16:50:40;21.20;78.40
19256;DHT22;9762;52.490;13.410;2022-10-16T16:53:05;21.10;78.70
19256;DHT22;9762;52.490;13.410;2022-10-16T16:55:32;21.10;79.00
19256;DHT22;9762;52.490;13.410;2022-10-16T16:57:58;21.10;79.20
19256;DHT22;9762;52.490;13.410;2022-10-16T17:00:23;21.00;79.40
19256;DHT22;9762;52.490;13.410;2022-10-16T17:02:50;21.00;79.70
19256;DHT22;9762;52.490;13.410;2022-10-16T17:05:16;20.90;80.80
19256;DHT22;9762;52.490;13.410;2022-10-16T17:07:41;20.90;80.20
19256;DHT22;9762;52.490;13.410;2022-10-16T17:10:07;20.80;80.30
19256;DHT22;9762;52.490;13.410;2022-10-16T17:12:33;20.80;80.60
19256;DHT22;9762;52.490;13.410;2022-10-16T17:14:59;20.70;81.00
19256;DHT22;9762;52.490;13.410;2022-10-16T17:17:24;20.70;81.00
19256;DHT22;9762;52.490;13.410;2022-10-16T17:19:50;20.60;81.20
19256;DHT22;9762;52.490;13.410;2022-10-16T17:22:17;20.50;81.60
19256;DHT22;9762;52.490;13.410;2022-10-16T17:24:42;20.50;81.80
19256;DHT22;9762;52.490;13.410;2022-10-16T17:27:08;20.40;83.00
19256;DHT22;9762;52.490;13.410;2022-10-16T17:29:34;20.30;82.40
19256;DHT22;9762;52.490;13.410;2022-10-16T17:32:00;20.30;82.70